Time;durP1;ratioP1;P1;durP2;ratioP2;P2;SDS_P1;SDS_P2;PMS_P1;PMS_P2;Temp;Humidity;BMP_temperature;BMP_pressure;BME280_temperature;BME280_humidity;BME280_pressure;Samples;Min_cycle;Max_cycle;Signal;HPM_P1;HPM_P2
2023/05/25 00:01:08;;;;;;;18.25;4.80;;;10.60;99.90;;;;;;4906167;29;20068;-35
2023/05/25 00:03:34;;;;;;;11.60;2.38;;;10.60;99.90;;;;;;4908604;29;20494;-35
2023/05/25 00:06:00;;;;;;;6.72;2.00;;;10.50;99.90;;;;;;4905604;29;20123;-35
2023/05/25 00:08:27;;;;;;;7.97;2.47;;;10.50;99.90;;;;;;4905840;29;20119;-35
2023/05/25 00:10:52;;;;;;;7.32;2.60;;;10.50;99.90;;;;;;4913243;29;20049;-35
2023/05/25 00:13:18;;;;;;;6.20;2.60;;;10.40;99.90;;;;;;4902445;29;20052;-35
2023/05/25 00:15:44;;;;;;;6.55;1.92;;;10.40;99.90;;;;;;4903306;29;20060;-35
2023/05/25 00:18:10;;;;;;;9.85;2.50;;;10.40;99.90;;;;;;4909572;29;20056;-35
2023/05/25 00:20:36;;;;;;;10.65;3.17;;;10.30;99.90;;;;;;4899166;29;20051;-35
2023/05/25 00:23:01;;;;;;;7.13;2.17;;;10.30;99.90;;;;;;4906446;29;20060;-35
2023/05/25 00:25:28;;;;;;;8.00;2.38;;;10.30;99.90;;;;;;4907077;29;20056;-35
2023/05/25 00:27:53;;;;;;;5.03;1.75;;;10.30;99.90;;;;;;4908884;29;20060;-35
2023/05/25 00:30:19;;;;;;;6.90;2.42;;;10.30;99.90;;;;;;4902355;29;20408;-36
2023/05/25 00:32:46;;;;;;;7.32;2.25;;;10.30;99.90;;;;;;4906476;29;20087;-35
2023/05/25 00:35:12;;;;;;;5.70;2.45;;;10.30;99.90;;;;;;4896559;29;20155;-35
2023/05/25 00:37:37;;;;;;;9.38;2.40;;;10.20;99.90;;;;;;4904919;29;20131;-35
2023/05/25 00:40:06;;;;;;;8.40;2.72;;;10.20;99.90;;;;;;4909118;29;20119;-35
2023/05/25 00:42:32;;;;;;;7.10;2.53;;;10.20;99.90;;;;;;4892329;29;20044;-35
2023/05/25 00:44:57;;;;;;;5.82;2.30;;;10.20;99.90;;;;;;4908531;29;20816;-35
2023/05/25 00:47:23;;;;;;;9.35;2.50;;;10.20;99.90;;;;;;4910260;29;20084;-35
2023/05/25 00:49:50;;;;;;;8.80;2.45;;;10.10;99.90;;;;;;4905788;29;20056;-35
2023/05/25 00:52:15;;;;;;;7.45;2.38;;;10.10;99.90;;;;;;4909913;29;20151;-35
2023/05/25 00:54:42;;;;;;;7.30;2.17;;;10.10;99.90;;;;;;4908126;29;20503;-35
2023/05/25 00:57:11;;;;;;;6.93;2.20;;;10.10;99.90;;;;;;4908415;29;20135;-35
2023/05/25 00:59:40;;;;;;;5.00;2.25;;;10.00;99.90;;;;;;4909219;29;20049;-35
2023/05/25 01:02:09;;;;;;;6.90;2.50;;;10.00;99.90;;;;;;4910807;29;20063;-35
2023/05/25 01:04:39;;;;;;;5.70;2.50;;;10.00;99.90;;;;;;4908771;29;20068;-36
2023/05/25 01:07:07;;;;;;;7.10;2.65;;;10.00;99.90;;;;;;4906207;29;20059;-35
2023/05/25 01:09:34;;;;;;;6.88;2.63;;;10.00;99.90;;;;;;4906973;29;20493;-35
2023/05/25 01:12:02;;;;;;;5.80;2.08;;;10.00;99.90;;;;;;4907583;29;20490;-35
2023/05/25 01:14:28;;;;;;;7.43;2.42;;;9.90;99.90;;;;;;4906498;29;20044;-35
2023/05/25 01:16:55;;;;;;;8.15;2.40;;;10.00;99.90;;;;;;4913326;29;20148;-35
2023/05/25 01:19:21;;;;;;;6.38;3.08;;;9.90;99.90;;;;;;4910749;29;20127;-34
2023/05/25 01:21:49;;;;;;;7.95;2.72;;;9.90;99.90;;;;;;4910021;29;20480;-35
2023/05/25 01:24:34;;;;;;;5.70;2.15;;;9.90;99.90;;;;;;4908259;29;20175;-35
2023/05/25 01:27:17;;;;;;;8.05;2.60;;;9.80;99.90;;;;;;4910410;29;20063;-35
2023/05/25 01:29:45;;;;;;;12.32;2.40;;;9.80;99.90;;;;;;4913465;29;20051;-35
2023/05/25 01:32:13;;;;;;;7.40;2.47;;;9.80;99.90;;;;;;4913295;29;20055;-37
2023/05/25 01:34:41;;;;;;;6.45;2.63;;;9.80;99.90;;;;;;4913796;29;20054;-35
2023/05/25 01:37:07;;;;;;;8.63;2.63;;;9.80;99.90;;;;;;4916268;29;20056;-37
2023/05/25 01:39:33;;;;;;;7.47;3.10;;;9.70;99.90;;;;;;4912761;29;20048;-35
2023/05/25 01:41:58;;;;;;;9.32;2.83;;;9.70;99.90;;;;;;4917855;29;20104;-35
2023/05/25 01:44:25;;;;;;;8.18;2.40;;;9.70;99.90;;;;;;4909703;29;20399;-35
2023/05/25 01:47:15;;;;;;;10.82;3.13;;;9.70;99.90;;;;;;4910115;29;20063;-35
2023/05/25 01:50:06;;;;;;;8.65;2.95;;;9.70;99.90;;;;;;4906181;29;20106;-35
2023/05/25 01:52:37;;;;;;;10.63;3.13;;;9.70;99.90;;;;;;4912490;29;20052;-36
2023/05/25 01:55:11;;;;;;;8.90;2.40;;;9.70;99.90;;;;;;4918833;29;20059;-35
2023/05/25 01:57:41;;;;;;;10.15;3.40;;;9.70;99.90;;;;;;4916525;29;20562;-35
2023/05/25 02:00:09;;;;;;;10.63;3.50;;;9.60;99.90;;;;;;4911170;29;20070;-35
2023/05/25 02:02:35;;;;;;;9.07;3.28;;;9.60;99.90;;;;;;4904509;29;20582;-34
2023/05/25 02:05:01;;;;;;;5.70;2.85;;;9.60;99.90;;;;;;4912386;29;20048;-36
2023/05/25 02:07:27;;;;;;;8.88;2.97;;;9.50;99.90;;;;;;4909357;29;20052;-36
2023/05/25 02:09:53;;;;;;;7.70;3.20;;;9.50;99.90;;;;;;4912183;29;20096;-36
2023/05/25 02:12:18;;;;;;;10.98;3.20;;;9.50;99.90;;;;;;4911698;29;20052;-36
2023/05/25 02:14:47;;;;;;;8.13;2.92;;;9.50;99.90;;;;;;4910993;29;21678;-36
2023/05/25 02:17:16;;;;;;;9.05;3.03;;;9.50;99.90;;;;;;4914681;29;20118;-36
2023/05/25 02:19:42;;;;;;;8.23;2.70;;;9.40;99.90;;;;;;4910625;29;20059;-37
2023/05/25 02:22:08;;;;;;;10.07;3.78;;;9.50;99.90;;;;;;4910259;29;20092;-34
2023/05/25 02:24:34;;;;;;;10.63;2.95;;;9.40;99.90;;;;;;4911520;29;20079;-35
2023/05/25 02:27:00;;;;;;;8.90;3.13;;;9.40;99.90;;;;;;4911893;29;20462;-35
2023/05/25 02:29:26;;;;;;;10.07;2.95;;;9.40;99.90;;;;;;4913453;29;20059;-35
2023/05/25 02:31:52;;;;;;;9.10;3.03;;;9.40;99.90;;;;;;4908929;29;20549;-35
2023/05/25 02:34:17;;;;;;;7.03;3.10;;;9.30;99.90;;;;;;4908923;29;20088;-35
2023/05/25 02:36:43;;;;;;;7.35;2.75;;;9.30;99.90;;;;;;4914656;29;20124;-35
2023/05/25 02:39:10;;;;;;;8.88;2.83;;;9.30;99.90;;;;;;4906159;29;20088;-35
2023/05/25 02:41:37;;;;;;;10.32;2.90;;;9.30;99.90;;;;;;4910510;29;20058;-36
2023/05/25 02:44:02;;;;;;;8.98;2.70;;;9.30;99.90;;;;;;4908211;29;20396;-36
2023/05/25 02:46:28;;;;;;;14.63;2.95;;;9.30;99.90;;;;;;4911006;29;20059;-36
2023/05/25 02:48:54;;;;;;;6.55;2.78;;;9.20;99.90;;;;;;4904832;29;20044;-36
2023/05/25 02:51:19;;;;;;;5.05;2.50;;;9.20;99.90;;;;;;4911947;29;20132;-36
2023/05/25 02:53:45;;;;;;;8.27;2.38;;;9.20;99.90;;;;;;4907588;29;20080;-36
2023/05/25 02:56:11;;;;;;;8.20;3.53;;;9.20;99.90;;;;;;4908859;29;20053;-36
2023/05/25 02:58:37;;;;;;;7.35;2.40;;;9.10;99.90;;;;;;4911717;29;20048;-36
2023/05/25 03:01:04;;;;;;;6.63;3.00;;;9.10;99.90;;;;;;4908046;29;20083;-36
2023/05/25 03:03:30;;;;;;;5.93;2.58;;;9.10;99.90;;;;;;4904780;29;20046;-36
2023/05/25 03:05:56;;;;;;;7.57;2.42;;;9.10;99.90;;;;;;4906868;29;20139;-36
2023/05/25 03:08:22;;;;;;;6.63;2.42;;;9.10;99.90;;;;;;4908028;29;20472;-36
2023/05/25 03:10:47;;;;;;;6.10;2.47;;;9.10;99.90;;;;;;4908378;29;20546;-35
2023/05/25 03:13:13;;;;;;;7.03;2.88;;;9.10;99.90;;;;;;4906855;29;20049;-35
2023/05/25 03:15:39;;;;;;;9.60;3.00;;;9.10;99.90;;;;;;4915919;29;20052;-35
2023/05/25 03:18:05;;;;;;;10.45;2.88;;;9.10;99.90;;;;;;4908840;29;20052;-35
2023/05/25 03:20:32;;;;;;;10.32;3.08;;;9.10;99.90;;;;;;4909596;29;20056;-35
2023/05/25 03:22:57;;;;;;;8.45;3.08;;;9.10;99.90;;;;;;4905352;29;20059;-35
2023/05/25 03:25:23;;;;;;;7.70;2.78;;;9.10;99.90;;;;;;4909830;29;20545;-35
2023/05/25 03:27:52;;;;;;;11.25;3.30;;;9.00;99.90;;;;;;4907068;29;20056;-35
2023/05/25 03:30:20;;;;;;;9.55;4.13;;;9.10;99.90;;;;;;4885838;29;20063;-35
2023/05/25 03:32:46;;;;;;;10.82;3.35;;;9.10;99.90;;;;;;4906035;29;20048;-35
2023/05/25 03:35:11;;;;;;;9.10;2.95;;;9.00;99.90;;;;;;4905365;29;20087;-35
2023/05/25 03:37:37;;;;;;;10.18;2.97;;;9.00;99.90;;;;;;4903799;29;20067;-35
2023/05/25 03:40:03;;;;;;;10.48;3.47;;;9.00;99.90;;;;;;4903381;29;20056;-35
2023/05/25 03:42:29;;;;;;;7.97;3.30;;;9.00;99.90;;;;;;4905269;29;20502;-35
2023/05/25 03:44:55;;;;;;;7.30;3.35;;;9.00;99.90;;;;;;4916130;29;20055;-35
2023/05/25 03:47:20;;;;;;;7.65;2.92;;;9.00;99.90;;;;;;4909034;29;20056;-36
2023/05/25 03:49:46;;;;;;;11.23;3.42;;;9.00;99.90;;;;;;4909723;29;20068;-35
2023/05/25 03:52:11;;;;;;;12.63;4.15;;;9.10;99.90;;;;;;4909642;29;20067;-36
2023/05/25 03:54:37;;;;;;;8.13;4.07;;;9.10;99.90;;;;;;4909530;29;20060;-35
2023/05/25 03:57:03;;;;;;;12.63;3.83;;;9.10;99.90;;;;;;4907053;29;20052;-35
2023/05/25 03:59:29;;;;;;;10.60;3.90;;;9.10;99.90;;;;;;4911556;29;20059;-35
2023/05/25 04:01:55;;;;;;;10.90;3.47;;;9.10;99.90;;;;;;4902780;29;20139;-35
2023/05/25 04:04:20;;;;;;;8.45;3.33;;;9.10;99.90;;;;;;4905600;29;20482;-36
2023/05/25 04:06:47;;;;;;;9.80;3.63;;;9.20;99.90;;;;;;4904953;29;20108;-35
2023/05/25 04:09:14;;;;;;;11.57;3.65;;;9.20;99.90;;;;;;4905007;29;20063;-35
2023/05/25 04:11:39;;;;;;;8.25;3.50;;;9.20;99.90;;;;;;4908717;29;20087;-35
2023/05/25 04:14:05;;;;;;;14.30;3.40;;;9.20;99.90;;;;;;4907261;29;20084;-35
2023/05/25 04:16:31;;;;;;;10.25;4.60;;;9.20;99.90;;;;;;4903352;29;20059;-36
2023/05/25 04:18:57;;;;;;;8.05;3.55;;;9.30;99.90;;;;;;4905920;29;20055;-35
2023/05/25 04:21:22;;;;;;;10.80;3.97;;;9.20;99.90;;;;;;4907522;29;20071;-37
2023/05/25 04:23:48;;;;;;;10.52;3.28;;;9.30;99.90;;;;;;4906568;29;20052;-35
2023/05/25 04:26:17;;;;;;;6.95;3.17;;;9.30;99.90;;;;;;4907787;29;20051;-35
2023/05/25 04:28:42;;;;;;;10.55;3.50;;;9.30;99.90;;;;;;4911067;29;20486;-35
2023/05/25 04:31:08;;;;;;;9.63;3.22;;;9.30;99.90;;;;;;4903011;29;20055;-35
2023/05/25 04:33:37;;;;;;;10.38;3.42;;;9.40;99.90;;;;;;4913488;29;20409;-35
2023/05/25 04:36:07;;;;;;;14.23;4.22;;;9.40;99.90;;;;;;4905949;29;20487;-36
2023/05/25 04:38:34;;;;;;;7.68;3.35;;;9.50;99.90;;;;;;4907111;29;20059;-35
2023/05/25 04:41:02;;;;;;;8.38;3.33;;;9.50;99.90;;;;;;4909142;29;20057;-35
2023/05/25 04:43:28;;;;;;;9.63;3.85;;;9.50;99.90;;;;;;4908894;29;20067;-35
2023/05/25 04:45:58;;;;;;;9.52;3.38;;;9.60;99.90;;;;;;4910973;29;20055;-35
2023/05/25 04:48:27;;;;;;;9.70;3.67;;;9.60;99.90;;;;;;4905533;29;20501;-35
2023/05/25 04:50:54;;;;;;;9.82;3.85;;;9.60;99.90;;;;;;4906155;29;20090;-35
2023/05/25 04:53:21;;;;;;;19.05;4.18;;;9.60;99.90;;;;;;4905152;29;20052;-35
2023/05/25 04:55:48;;;;;;;11.40;4.18;;;9.70;99.90;;;;;;4903793;29;20056;-35
2023/05/25 04:58:14;;;;;;;13.10;4.47;;;9.70;99.90;;;;;;4903502;29;20085;-35
2023/05/25 05:00:40;;;;;;;8.75;4.32;;;9.80;99.90;;;;;;4909566;29;20083;-35
2023/05/25 05:03:05;;;;;;;12.38;3.88;;;9.80;99.90;;;;;;4912702;29;20215;-35
2023/05/25 05:05:31;;;;;;;10.60;4.35;;;9.90;99.90;;;;;;4910840;29;20087;-35
2023/05/25 05:07:57;;;;;;;15.02;4.78;;;9.90;99.90;;;;;;4916793;29;20047;-35
2023/05/25 05:10:22;;;;;;;9.57;3.75;;;9.90;99.90;;;;;;4911272;29;20056;-35
2023/05/25 05:12:48;;;;;;;10.82;4.57;;;10.00;99.90;;;;;;4907668;29;20056;-35
2023/05/25 05:15:14;;;;;;;8.77;3.75;;;10.10;99.90;;;;;;4912281;29;20065;-35
2023/05/25 05:17:40;;;;;;;8.80;4.13;;;10.10;99.90;;;;;;4910155;29;20538;-35
2023/05/25 05:20:06;;;;;;;13.60;4.20;;;10.20;99.90;;;;;;4905282;29;20466;-35
2023/05/25 05:22:32;;;;;;;20.45;5.15;;;10.30;99.90;;;;;;4903421;29;20398;-36
2023/05/25 05:24:58;;;;;;;13.70;4.38;;;10.40;99.90;;;;;;4910567;29;20075;-35
2023/05/25 05:27:26;;;;;;;11.82;4.72;;;10.50;99.90;;;;;;4905972;29;20059;-35
2023/05/25 05:29:52;;;;;;;11.13;3.95;;;10.60;99.90;;;;;;4910409;29;20052;-35
2023/05/25 05:32:18;;;;;;;15.38;4.65;;;10.70;99.90;;;;;;4910070;29;21584;-36
2023/05/25 05:34:43;;;;;;;13.90;4.35;;;10.80;99.90;;;;;;4910239;29;20064;-36
2023/05/25 05:37:09;;;;;;;11.88;3.78;;;10.80;99.90;;;;;;4908078;29;20059;-35
2023/05/25 05:39:35;;;;;;;11.82;4.80;;;11.00;99.90;;;;;;4905625;29;20208;-35
2023/05/25 05:42:00;;;;;;;12.05;3.75;;;11.00;99.90;;;;;;4905442;29;20055;-35
2023/05/25 05:44:26;;;;;;;14.18;4.95;;;11.10;99.90;;;;;;4909523;29;20052;-35
2023/05/25 05:46:58;;;;;;;15.20;4.50;;;11.20;99.90;;;;;;4906477;29;20040;-36
2023/05/25 05:49:28;;;;;;;12.45;4.93;;;11.30;99.90;;;;;;4908548;29;20048;-35
2023/05/25 05:51:54;;;;;;;10.35;4.07;;;11.40;99.90;;;;;;4914314;29;20044;-36
2023/05/25 05:54:19;;;;;;;9.95;4.55;;;11.50;99.90;;;;;;4900490;29;20153;-35
2023/05/25 05:56:45;;;;;;;15.23;4.50;;;11.50;99.90;;;;;;4909150;29;20194;-35
2023/05/25 05:59:11;;;;;;;7.88;3.85;;;11.60;99.90;;;;;;4905967;29;20056;-35
2023/05/25 06:01:37;;;;;;;9.02;4.10;;;11.70;99.90;;;;;;4905440;29;20056;-36
2023/05/25 06:04:05;;;;;;;10.93;4.68;;;11.80;99.90;;;;;;4908563;29;20044;-35
2023/05/25 06:06:33;;;;;;;12.98;4.63;;;11.90;99.90;;;;;;4906003;29;20070;-36
2023/05/25 06:09:00;;;;;;;13.73;4.68;;;12.00;99.90;;;;;;4900055;29;20056;-35
2023/05/25 06:11:25;;;;;;;11.75;4.47;;;12.10;99.90;;;;;;4900404;29;20499;-35
2023/05/25 06:13:51;;;;;;;11.02;4.53;;;12.20;99.90;;;;;;4904852;29;20051;-35
2023/05/25 06:16:17;;;;;;;13.95;5.80;;;12.20;99.90;;;;;;4905322;29;20056;-35
2023/05/25 06:18:42;;;;;;;12.10;5.20;;;12.30;99.90;;;;;;4906015;29;20150;-35
2023/05/25 06:21:08;;;;;;;11.68;4.20;;;12.40;99.90;;;;;;4907556;29;20048;-34
2023/05/25 06:23:33;;;;;;;11.50;4.63;;;12.50;99.90;;;;;;4908583;29;20578;-37
2023/05/25 06:26:06;;;;;;;10.65;3.78;;;12.60;99.90;;;;;;4905136;29;20056;-35
2023/05/25 06:28:32;;;;;;;13.38;4.45;;;12.70;99.90;;;;;;4910241;29;20498;-34
2023/05/25 06:30:57;;;;;;;12.40;4.32;;;12.80;99.90;;;;;;4904752;29;20378;-36
2023/05/25 06:33:23;;;;;;;11.55;3.58;;;12.90;99.90;;;;;;4910747;29;20533;-36
2023/05/25 06:35:49;;;;;;;8.85;3.28;;;13.00;99.90;;;;;;4907102;29;20070;-36
2023/05/25 06:38:15;;;;;;;9.57;3.20;;;13.00;99.90;;;;;;4911247;29;20116;-36
2023/05/25 06:40:40;;;;;;;9.95;4.43;;;13.10;99.90;;;;;;4904775;29;20055;-35
2023/05/25 06:43:06;;;;;;;8.30;3.47;;;13.20;99.90;;;;;;4907510;29;20063;-35
2023/05/25 06:45:32;;;;;;;8.63;2.70;;;13.20;99.90;;;;;;4903735;29;20413;-35
2023/05/25 06:47:57;;;;;;;9.05;3.10;;;13.30;99.90;;;;;;4904067;29;20059;-35
2023/05/25 06:50:24;;;;;;;11.77;3.67;;;13.40;99.90;;;;;;4905409;29;20058;-35
2023/05/25 06:52:50;;;;;;;9.85;3.05;;;13.50;99.90;;;;;;4897905;29;20499;-35
2023/05/25 06:55:15;;;;;;;6.85;2.67;;;13.60;99.90;;;;;;4907740;29;20051;-35
2023/05/25 06:57:42;;;;;;;7.68;2.90;;;13.70;99.90;;;;;;4906710;29;20063;-35
2023/05/25 07:00:11;;;;;;;7.55;2.30;;;13.80;99.90;;;;;;4899756;29;20146;-35
2023/05/25 07:02:38;;;;;;;7.63;2.50;;;13.80;99.90;;;;;;4908280;29;20059;-35
2023/05/25 07:05:04;;;;;;;6.22;2.17;;;13.90;99.90;;;;;;4904061;29;20086;-35
2023/05/25 07:07:30;;;;;;;6.25;2.00;;;13.90;99.90;;;;;;4902172;29;20075;-35
2023/05/25 07:09:56;;;;;;;7.45;2.72;;;13.90;99.90;;;;;;4906640;29;20052;-35
2023/05/25 07:12:22;;;;;;;10.77;2.80;;;14.00;99.90;;;;;;4902055;29;20040;-35
2023/05/25 07:14:48;;;;;;;5.22;2.25;;;14.10;99.90;;;;;;4908667;29;20052;-35
2023/05/25 07:17:14;;;;;;;8.90;2.35;;;14.20;99.90;;;;;;4908319;29;20084;-35
2023/05/25 07:19:42;;;;;;;6.07;2.22;;;14.30;99.90;;;;;;4908921;29;20055;-35
2023/05/25 07:22:11;;;;;;;10.63;2.78;;;14.40;99.90;;;;;;4908196;29;20139;-35
2023/05/25 07:24:37;;;;;;;6.93;2.95;;;14.50;99.90;;;;;;4906031;29;20756;-35
2023/05/25 07:27:03;;;;;;;10.10;1.90;;;14.40;99.90;;;;;;4905114;29;20040;-35
2023/05/25 07:29:29;;;;;;;3.85;1.60;;;14.40;99.90;;;;;;4901887;29;20052;-35
2023/05/25 07:31:54;;;;;;;7.57;2.00;;;14.40;99.90;;;;;;4907068;29;20052;-35
2023/05/25 07:34:20;;;;;;;6.93;2.05;;;14.50;99.90;;;;;;4906490;29;20048;-35
2023/05/25 07:36:46;;;;;;;7.32;1.65;;;14.60;99.90;;;;;;4902436;29;20048;-35
2023/05/25 07:39:12;;;;;;;10.70;2.25;;;14.70;99.90;;;;;;4906764;29;20498;-35
2023/05/25 07:41:38;;;;;;;9.40;2.00;;;14.70;99.90;;;;;;4907120;29;20150;-35
2023/05/25 07:44:03;;;;;;;8.13;2.28;;;14.70;99.90;;;;;;4908940;29;20710;-36
2023/05/25 07:46:29;;;;;;;7.90;2.10;;;14.80;99.90;;;;;;4905039;29;20048;-36
2023/05/25 07:48:57;;;;;;;7.40;1.45;;;14.90;99.90;;;;;;4905865;29;20048;-36
2023/05/25 07:51:24;;;;;;;7.82;1.75;;;15.10;99.90;;;;;;4908791;29;20135;-36
2023/05/25 07:53:51;;;;;;;8.88;2.47;;;15.20;99.90;;;;;;4905688;29;20048;-36
2023/05/25 07:56:16;;;;;;;8.10;2.58;;;15.40;99.90;;;;;;4903391;29;20161;-36
2023/05/25 07:58:42;;;;;;;6.50;1.67;;;15.40;99.90;;;;;;4903117;29;20195;-35
2023/05/25 08:01:08;;;;;;;5.35;1.17;;;15.50;99.90;;;;;;4905422;29;20553;-36
2023/05/25 08:03:33;;;;;;;9.23;1.90;;;15.60;99.90;;;;;;4905397;29;20056;-36
2023/05/25 08:05:59;;;;;;;6.75;1.60;;;15.60;99.90;;;;;;4905767;29;20056;-36
2023/05/25 08:08:24;;;;;;;6.95;1.38;;;15.80;99.90;;;;;;4909712;29;20083;-36
2023/05/25 08:10:50;;;;;;;8.38;1.45;;;15.90;99.90;;;;;;4908849;29;20108;-36
2023/05/25 08:13:16;;;;;;;8.32;2.03;;;16.00;99.90;;;;;;4907941;29;20414;-36
2023/05/25 08:15:41;;;;;;;11.25;1.95;;;16.10;99.90;;;;;;4907672;29;20051;-36
2023/05/25 08:18:07;;;;;;;6.45;1.52;;;16.10;99.90;;;;;;4894260;29;20056;-36
2023/05/25 08:20:33;;;;;;;4.18;1.13;;;16.20;99.90;;;;;;4909613;29;20052;-36
2023/05/25 08:22:58;;;;;;;5.95;1.02;;;16.20;99.90;;;;;;4908951;29;20052;-36
2023/05/25 08:25:24;;;;;;;8.10;1.58;;;16.20;99.90;;;;;;4908191;29;20064;-36
2023/05/25 08:27:49;;;;;;;9.00;1.75;;;16.20;99.90;;;;;;4905443;29;20048;-36
2023/05/25 08:30:15;;;;;;;7.97;1.80;;;16.20;99.90;;;;;;4906286;29;20059;-36
2023/05/25 08:32:41;;;;;;;7.35;1.50;;;16.30;99.90;;;;;;4907631;29;20048;-36
2023/05/25 08:35:07;;;;;;;4.75;1.50;;;16.30;99.90;;;;;;4900749;29;20060;-36
2023/05/25 08:37:33;;;;;;;7.28;1.38;;;16.20;99.90;;;;;;4904727;29;20063;-36
2023/05/25 08:40:01;;;;;;;7.20;1.38;;;16.20;99.90;;;;;;4906291;29;20186;-36
2023/05/25 08:42:27;;;;;;;4.55;1.33;;;16.20;99.90;;;;;;4907658;29;20098;-36
2023/05/25 08:44:53;;;;;;;7.55;1.92;;;16.10;99.90;;;;;;4905938;29;20070;-36
2023/05/25 08:47:23;;;;;;;6.07;1.80;;;16.10;99.90;;;;;;4904608;29;20056;-36
2023/05/25 08:49:50;;;;;;;5.95;1.67;;;16.00;99.90;;;;;;4907317;29;20118;-36
2023/05/25 08:52:25;;;;;;;10.13;1.90;;;16.00;99.90;;;;;;4905364;29;20071;-36
2023/05/25 08:54:54;;;;;;;4.60;1.52;;;15.90;99.90;;;;;;4906442;29;20509;-36
2023/05/25 08:57:28;;;;;;;7.20;1.33;;;15.90;99.90;;;;;;4905324;29;20111;-36
2023/05/25 09:00:10;;;;;;;9.85;1.73;;;15.90;99.90;;;;;;4910314;29;20056;-36
2023/05/25 09:03:07;;;;;;;11.45;1.50;;;16.00;99.90;;;;;;4911229;29;20055;-36
2023/05/25 09:05:35;;;;;;;6.47;1.50;;;16.00;99.90;;;;;;4909257;29;20051;-36
2023/05/25 09:08:09;;;;;;;5.93;1.42;;;16.00;99.90;;;;;;4906425;29;20048;-36
2023/05/25 09:10:35;;;;;;;6.25;1.25;;;16.10;99.90;;;;;;4905506;29;20087;-36
2023/05/25 09:13:02;;;;;;;5.68;1.85;;;16.00;99.90;;;;;;4905256;29;20755;-36
2023/05/25 09:15:28;;;;;;;5.20;1.20;;;16.00;99.90;;;;;;4903738;29;20139;-36
2023/05/25 09:17:54;;;;;;;6.28;1.30;;;15.80;99.90;;;;;;4896529;29;20060;-36
2023/05/25 09:20:19;;;;;;;6.63;2.03;;;15.80;99.90;;;;;;4901834;29;20067;-37
2023/05/25 09:22:48;;;;;;;6.95;1.48;;;15.70;99.90;;;;;;4896568;29;20099;-36
2023/05/25 09:25:20;;;;;;;8.63;1.52;;;15.70;99.90;;;;;;4898004;29;20070;-36
2023/05/25 09:27:46;;;;;;;6.45;2.30;;;15.80;99.90;;;;;;4902291;29;20084;-36
2023/05/25 09:30:12;;;;;;;9.10;1.60;;;16.00;99.90;;;;;;4896414;29;20886;-36
2023/05/25 09:32:38;;;;;;;7.18;1.48;;;16.10;99.90;;;;;;4907430;29;20052;-36
2023/05/25 09:35:14;;;;;;;6.82;1.80;;;16.20;99.90;;;;;;4903396;29;20155;-36
2023/05/25 09:37:41;;;;;;;5.03;1.33;;;16.30;99.90;;;;;;4902427;29;20503;-36
2023/05/25 09:40:08;;;;;;;5.45;1.45;;;16.30;99.90;;;;;;4906394;29;20123;-36
2023/05/25 09:42:34;;;;;;;9.68;1.70;;;16.30;99.90;;;;;;4904037;29;20059;-36
2023/05/25 09:45:01;;;;;;;8.25;1.90;;;16.40;99.90;;;;;;4889852;29;20520;-36
2023/05/25 09:47:30;;;;;;;8.10;1.85;;;16.40;99.90;;;;;;4890401;29;20685;-36
2023/05/25 09:49:56;;;;;;;6.60;1.45;;;16.40;99.90;;;;;;4900186;29;20052;-36
2023/05/25 09:52:23;;;;;;;8.50;1.50;;;16.30;99.90;;;;;;4897378;29;20053;-36
2023/05/25 09:54:50;;;;;;;9.73;1.90;;;16.20;99.90;;;;;;4907221;29;20499;-36
2023/05/25 09:57:18;;;;;;;7.40;1.77;;;16.10;99.90;;;;;;4902731;29;20123;-36
2023/05/25 09:59:45;;;;;;;11.52;2.20;;;16.00;99.90;;;;;;4903205;29;20064;-36
2023/05/25 10:02:11;;;;;;;10.20;2.33;;;15.90;99.90;;;;;;4909710;29;20059;-36
2023/05/25 10:04:38;;;;;;;9.73;1.85;;;15.80;99.90;;;;;;4910935;29;20044;-36
2023/05/25 10:07:04;;;;;;;11.88;2.10;;;15.80;99.90;;;;;;4892459;29;20102;-38
2023/05/25 10:09:34;;;;;;;7.07;1.67;;;15.70;99.90;;;;;;4912592;29;20056;-38
2023/05/25 10:12:01;;;;;;;6.47;2.42;;;15.70;99.90;;;;;;4910916;29;20052;-39
2023/05/25 10:14:28;;;;;;;8.35;1.55;;;15.80;99.90;;;;;;4910535;29;20044;-38
2023/05/25 10:16:56;;;;;;;11.45;1.85;;;16.00;99.90;;;;;;4903247;29;20481;-38
2023/05/25 10:19:50;;;;;;;10.73;1.85;;;16.20;99.90;;;;;;4911419;29;20442;-37
2023/05/25 10:22:31;;;;;;;13.50;2.33;;;16.30;99.90;;;;;;4908841;29;20055;-38
2023/05/25 10:25:12;;;;;;;9.27;1.50;;;16.60;99.90;;;;;;4912207;29;20055;-38
2023/05/25 10:27:43;;;;;;;10.32;2.10;;;16.90;99.90;;;;;;4888991;29;20060;-38
2023/05/25 10:30:09;;;;;;;9.98;2.78;;;17.10;99.90;;;;;;4901999;29;20556;-38
2023/05/25 10:32:37;;;;;;;9.98;1.77;;;17.10;99.90;;;;;;4909027;29;20048;-38
2023/05/25 10:35:06;;;;;;;12.95;2.47;;;17.30;99.90;;;;;;4915227;29;20052;-38
2023/05/25 10:37:33;;;;;;;8.38;1.80;;;17.30;99.90;;;;;;4909146;29;20074;-39
2023/05/25 10:40:00;;;;;;;10.15;2.20;;;17.30;99.90;;;;;;4899217;29;20067;-38
2023/05/25 10:42:28;;;;;;;12.90;1.80;;;17.40;99.90;;;;;;4904399;29;20106;-38
2023/05/25 10:44:55;;;;;;;10.50;1.40;;;17.60;99.90;;;;;;4905084;29;20035;-38
2023/05/25 10:47:21;;;;;;;8.93;1.52;;;17.80;99.90;;;;;;4901646;29;20049;-39
2023/05/25 10:49:59;;;;;;;10.00;2.00;;;17.90;99.90;;;;;;4904789;29;20139;-39
2023/05/25 10:52:29;;;;;;;9.40;3.15;;;17.80;99.90;;;;;;4911278;29;20698;-38
2023/05/25 10:55:00;;;;;;;12.18;2.20;;;17.70;99.90;;;;;;4906616;29;20055;-38
2023/05/25 10:57:27;;;;;;;8.00;1.52;;;17.80;99.90;;;;;;4905266;29;20439;-38
2023/05/25 10:59:59;;;;;;;13.98;2.28;;;17.90;99.90;;;;;;4907447;29;20080;-38
2023/05/25 11:02:28;;;;;;;9.88;1.60;;;17.80;99.90;;;;;;4905562;29;20076;-38
2023/05/25 11:05:25;;;;;;;10.70;1.95;;;17.60;99.90;;;;;;4907098;29;20725;-37
2023/05/25 11:07:56;;;;;;;9.45;2.63;;;17.50;99.90;;;;;;4908490;29;20051;-37
2023/05/25 11:10:40;;;;;;;14.15;2.33;;;17.40;99.90;;;;;;4907130;29;20494;-37
2023/05/25 11:13:24;;;;;;;13.00;2.00;;;17.50;99.90;;;;;;4904574;29;20479;-37
2023/05/25 11:16:12;;;;;;;6.60;1.80;;;17.70;99.90;;;;;;4909617;29;20415;-37
2023/05/25 11:18:40;;;;;;;8.38;2.13;;;18.00;99.90;;;;;;4907310;29;20135;-38
2023/05/25 11:21:39;;;;;;;7.20;1.42;;;18.20;99.90;;;;;;4904818;29;20076;-37
2023/05/25 11:24:16;;;;;;;7.47;1.70;;;18.60;99.90;;;;;;4905591;29;20114;-38
2023/05/25 11:26:56;;;;;;;12.15;1.90;;;18.90;99.90;;;;;;4904827;29;20502;-38
2023/05/25 11:29:24;;;;;;;11.52;2.08;;;19.20;99.90;;;;;;4913659;29;20067;-38
2023/05/25 11:31:54;;;;;;;9.20;1.63;;;19.50;99.90;;;;;;4905917;29;20573;-38
2023/05/25 11:34:24;;;;;;;10.48;2.05;;;19.80;99.90;;;;;;4911974;29;22016;-38
2023/05/25 11:37:00;;;;;;;8.40;1.50;;;19.70;99.90;;;;;;4903652;29;20099;-38
2023/05/25 11:39:26;;;;;;;10.05;2.22;;;19.50;99.90;;;;;;4905248;29;20063;-38
2023/05/25 11:42:02;;;;;;;11.82;1.80;;;19.40;99.90;;;;;;4908217;29;20391;-38
2023/05/25 11:44:32;;;;;;;8.15;1.55;;;19.50;99.90;;;;;;4911840;29;20558;-34
2023/05/25 11:47:00;;;;;;;9.05;2.13;;;19.40;99.90;;;;;;4910902;29;20553;-35
2023/05/25 11:49:26;;;;;;;12.02;1.77;;;19.30;99.90;;;;;;4910919;29;20074;-35
2023/05/25 11:51:53;;;;;;;13.30;1.90;;;19.40;99.90;;;;;;4907068;29;20048;-34
2023/05/25 11:54:26;;;;;;;8.70;2.10;;;19.50;99.90;;;;;;4902903;29;20150;-34
2023/05/25 11:56:56;;;;;;;9.13;2.35;;;19.40;99.90;;;;;;4914128;29;20052;-35
2023/05/25 11:59:22;;;;;;;12.25;2.33;;;19.40;99.90;;;;;;4903600;29;20407;-35
2023/05/25 12:02:02;;;;;;;9.55;1.75;;;19.60;99.90;;;;;;4909944;29;20506;-35
2023/05/25 12:04:29;;;;;;;11.68;2.35;;;19.70;99.90;;;;;;4910555;29;20144;-34
2023/05/25 12:07:05;;;;;;;10.75;1.90;;;19.70;99.90;;;;;;4908638;29;20047;-35
2023/05/25 12:09:31;;;;;;;7.68;1.70;;;19.80;99.90;;;;;;4908329;29;20048;-34
2023/05/25 12:11:58;;;;;;;10.35;1.92;;;19.80;99.90;;;;;;4914524;29;20071;-35
2023/05/25 12:14:24;;;;;;;9.50;1.60;;;19.80;99.90;;;;;;4908616;29;20115;-34
2023/05/25 12:16:50;;;;;;;7.43;1.73;;;19.90;99.90;;;;;;4912380;29;20103;-34
2023/05/25 12:19:17;;;;;;;11.35;2.17;;;20.00;99.90;;;;;;4905348;29;20052;-34
2023/05/25 12:21:43;;;;;;;10.57;2.40;;;19.80;99.90;;;;;;4910471;29;20139;-34
2023/05/25 12:24:11;;;;;;;10.35;2.42;;;19.50;99.90;;;;;;4898305;29;20052;-34
2023/05/25 12:26:56;;;;;;;11.00;2.25;;;19.40;99.90;;;;;;4900271;29;20063;-34
2023/05/25 12:29:22;;;;;;;8.40;1.92;;;19.50;99.90;;;;;;4904736;29;20086;-34
2023/05/25 12:31:47;;;;;;;8.88;2.33;;;19.70;99.90;;;;;;4900041;29;20135;-35
2023/05/25 12:34:15;;;;;;;14.15;2.35;;;19.70;99.90;;;;;;4900439;29;20047;-34
2023/05/25 12:36:49;;;;;;;13.48;1.83;;;19.80;99.90;;;;;;4900806;29;20410;-34
2023/05/25 12:39:37;;;;;;;12.05;2.15;;;20.10;99.90;;;;;;4905594;29;20047;-34
2023/05/25 12:42:05;;;;;;;8.90;1.92;;;20.20;99.90;;;;;;4904341;29;20055;-34
2023/05/25 12:44:31;;;;;;;9.70;2.15;;;20.30;99.90;;;;;;4904687;29;20056;-35
2023/05/25 12:47:11;;;;;;;8.82;2.58;;;20.40;99.90;;;;;;4906397;29;20102;-35
2023/05/25 12:49:38;;;;;;;13.90;2.30;;;20.60;99.90;;;;;;4901483;29;20491;-35